createdAt,value
2018-07-22T00:00:02.604Z,20.00
2018-07-22T00:02:30.854Z,19.90
2018-07-22T00:04:59.086Z,19.90
2018-07-22T00:07:27.372Z,19.90
2018-07-22T00:09:55.588Z,19.80
2018-07-22T00:12:23.896Z,19.80
2018-07-22T00:14:52.141Z,19.80
2018-07-22T00:17:20.367Z,19.80
2018-07-22T00:19:48.598Z,19.70
2018-07-22T00:22:16.837Z,19.70
2018-07-22T00:24:45.137Z,19.70
2018-07-22T00:27:13.433Z,19.60
2018-07-22T00:29:41.667Z,19.50
2018-07-22T00:32:09.936Z,19.50
2018-07-22T00:34:38.147Z,19.40
2018-07-22T00:37:06.497Z,19.40
2018-07-22T00:39:34.809Z,19.30
2018-07-22T00:42:03.172Z,19.30
2018-07-22T00:44:31.720Z,19.20
2018-07-22T00:46:59.939Z,19.20
2018-07-22T00:49:28.171Z,19.20
2018-07-22T00:51:56.397Z,19.20
2018-07-22T00:54:24.633Z,19.20
2018-07-22T00:56:52.841Z,19.30
2018-07-22T00:59:21.072Z,19.50
2018-07-22T01:01:49.302Z,19.40
2018-07-22T01:04:17.587Z,19.40
2018-07-22T01:06:45.843Z,19.40
2018-07-22T01:09:14.123Z,19.30
2018-07-22T01:11:42.330Z,19.30
2018-07-22T01:14:10.584Z,19.30
2018-07-22T01:16:38.831Z,19.30
2018-07-22T01:19:07.045Z,19.50
2018-07-22T01:21:35.277Z,19.50
2018-07-22T01:24:03.565Z,19.50
2018-07-22T01:26:31.968Z,19.50
2018-07-22T01:29:00.275Z,19.50
2018-07-22T01:31:28.536Z,19.50
2018-07-22T01:33:56.795Z,19.40
2018-07-22T01:36:25.073Z,19.30
2018-07-22T01:38:53.347Z,19.20
2018-07-22T01:41:21.623Z,19.20
2018-07-22T01:43:49.854Z,19.20
2018-07-22T01:46:18.125Z,19.10
2018-07-22T01:48:46.360Z,19.10
2018-07-22T01:51:14.643Z,19.10
2018-07-22T01:53:42.865Z,19.10
2018-07-22T01:56:11.147Z,19.20
2018-07-22T01:58:45.969Z,19.20
2018-07-22T02:01:14.328Z,19.30
2018-07-22T02:03:42.608Z,19.20
2018-07-22T02:06:10.869Z,19.30
2018-07-22T02:08:39.089Z,19.20
2018-07-22T02:11:07.304Z,19.30
2018-07-22T02:13:35.572Z,19.30
2018-07-22T02:16:03.864Z,19.10
2018-07-22T02:18:32.104Z,19.20
2018-07-22T02:21:00.344Z,19.20
2018-07-22T02:23:28.673Z,19.20
2018-07-22T02:25:57.885Z,19.30
2018-07-22T02:28:26.153Z,19.30
2018-07-22T02:30:57.473Z,19.30
2018-07-22T02:33:25.693Z,19.30
2018-07-22T02:35:53.968Z,19.30
2018-07-22T02:38:22.246Z,19.30
2018-07-22T02:40:50.754Z,19.20
2018-07-22T02:43:19.010Z,19.20
2018-07-22T02:45:47.258Z,19.30
2018-07-22T02:48:15.535Z,19.20
2018-07-22T02:50:43.800Z,19.20
2018-07-22T02:53:12.055Z,19.30
2018-07-22T02:55:40.303Z,19.20
2018-07-22T02:58:08.532Z,19.10
2018-07-22T03:00:36.779Z,19.10
2018-07-22T03:03:05.189Z,19.20
2018-07-22T03:05:33.417Z,19.20
2018-07-22T03:08:01.695Z,19.30
2018-07-22T03:10:29.917Z,19.30
2018-07-22T03:12:58.145Z,19.30
2018-07-22T03:15:26.380Z,19.40
2018-07-22T03:17:54.859Z,19.40
2018-07-22T03:20:23.096Z,19.40
2018-07-22T03:22:51.348Z,19.50
2018-07-22T03:25:19.615Z,19.50
2018-07-22T03:27:47.817Z,19.50
2018-07-22T03:30:16.167Z,19.60
2018-07-22T03:32:44.475Z,19.60
2018-07-22T03:35:12.708Z,19.60
2018-07-22T03:37:40.946Z,19.60
2018-07-22T03:40:09.273Z,19.70
2018-07-22T03:42:37.503Z,19.60
2018-07-22T03:45:05.970Z,19.50
2018-07-22T03:47:34.181Z,19.50
2018-07-22T03:50:02.413Z,19.50
2018-07-22T03:52:30.638Z,19.50
2018-07-22T03:54:58.876Z,19.50
2018-07-22T03:57:27.203Z,19.40
2018-07-22T03:59:55.424Z,19.30
2018-07-22T04:02:23.697Z,19.10
2018-07-22T04:04:52.035Z,19.10
2018-07-22T04:07:20.273Z,19.00
2018-07-22T04:09:48.488Z,19.10
2018-07-22T04:12:16.712Z,19.10
2018-07-22T04:14:45.548Z,19.10
2018-07-22T04:17:13.857Z,19.10
2018-07-22T04:19:42.861Z,19.20
2018-07-22T04:22:11.061Z,19.30
2018-07-22T04:24:39.470Z,19.30
2018-07-22T04:27:07.876Z,19.30
2018-07-22T04:29:36.169Z,19.40
2018-07-22T04:32:04.434Z,19.40
2018-07-22T04:34:32.682Z,19.40
2018-07-22T04:37:00.937Z,19.50
2018-07-22T04:39:29.180Z,19.50
2018-07-22T04:41:57.408Z,19.50
2018-07-22T04:44:25.655Z,19.50
2018-07-22T04:46:53.900Z,19.50
2018-07-22T04:49:22.114Z,19.60
2018-07-22T04:51:50.345Z,19.70
2018-07-22T04:54:18.765Z,19.80
2018-07-22T04:56:50.917Z,19.80
2018-07-22T04:59:19.205Z,19.90
2018-07-22T05:01:47.441Z,19.90
2018-07-22T05:04:15.738Z,20.00
2018-07-22T05:06:43.987Z,20.10
2018-07-22T05:09:13.023Z,20.10
2018-07-22T05:11:41.548Z,20.20
2018-07-22T05:14:09.777Z,20.30
2018-07-22T05:16:38.611Z,20.30
2018-07-22T05:19:07.297Z,20.30
2018-07-22T05:21:35.557Z,20.40
2018-07-22T05:24:03.850Z,20.50
2018-07-22T05:26:32.098Z,20.60
2018-07-22T05:29:00.364Z,20.70
2018-07-22T05:31:29.532Z,20.90
2018-07-22T05:33:57.781Z,21.10
2018-07-22T05:36:26.350Z,21.20
2018-07-22T05:38:54.585Z,21.40
2018-07-22T05:41:22.852Z,21.50
2018-07-22T05:43:51.284Z,21.60
2018-07-22T05:46:19.535Z,21.80
2018-07-22T05:48:47.761Z,22.00
2018-07-22T05:51:16.028Z,22.90
2018-07-22T05:53:44.359Z,24.70
2018-07-22T05:56:12.611Z,26.10
2018-07-22T05:58:40.852Z,27.20
2018-07-22T06:01:09.106Z,27.80
2018-07-22T06:03:37.324Z,28.30
2018-07-22T06:06:05.694Z,28.90
2018-07-22T06:08:33.951Z,29.50
2018-07-22T06:11:02.589Z,29.50
2018-07-22T06:13:30.837Z,29.60
2018-07-22T06:15:59.249Z,29.60
2018-07-22T06:18:27.549Z,29.50
2018-07-22T06:20:55.786Z,29.60
2018-07-22T06:23:24.764Z,29.50
2018-07-22T06:25:53.004Z,29.90
2018-07-22T06:28:21.253Z,30.00
2018-07-22T06:30:49.521Z,29.80
2018-07-22T06:33:17.805Z,29.80
2018-07-22T06:35:46.053Z,30.10
2018-07-22T06:38:14.571Z,30.40
2018-07-22T06:40:42.822Z,30.50
2018-07-22T06:43:11.042Z,30.80
2018-07-22T06:45:39.270Z,30.90
2018-07-22T06:48:07.569Z,31.20
2018-07-22T06:50:35.949Z,31.20
2018-07-22T06:53:04.243Z,31.00
2018-07-22T06:55:32.500Z,31.30
2018-07-22T06:58:00.732Z,31.30
2018-07-22T07:00:28.988Z,31.10
2018-07-22T07:02:57.223Z,29.50
2018-07-22T07:05:25.535Z,29.40
2018-07-22T07:07:53.701Z,29.70
2018-07-22T07:10:22.140Z,30.50
2018-07-22T07:12:50.418Z,31.00
2018-07-22T07:15:18.760Z,31.10
2018-07-22T07:17:46.990Z,31.50
2018-07-22T07:20:15.285Z,31.50
2018-07-22T07:25:18.320Z,31.50
2018-07-22T07:27:46.609Z,31.90
2018-07-22T07:30:14.898Z,30.20
2018-07-22T07:32:43.172Z,30.00
2018-07-22T07:35:11.435Z,29.10
2018-07-22T07:37:39.894Z,29.50
2018-07-22T07:40:08.206Z,29.90
2018-07-22T07:42:36.502Z,30.80
2018-07-22T07:45:05.268Z,31.50
2018-07-22T07:47:33.612Z,32.10
2018-07-22T07:50:02.385Z,32.60
2018-07-22T07:52:30.633Z,32.90
2018-07-22T07:54:59.293Z,32.90
2018-07-22T07:57:27.572Z,33.20
2018-07-22T07:59:55.860Z,33.30
2018-07-22T08:02:25.652Z,33.60
2018-07-22T08:04:54.864Z,33.70
2018-07-22T08:07:23.134Z,33.80
2018-07-22T08:09:51.421Z,33.70
2018-07-22T08:12:19.649Z,33.60
2018-07-22T08:14:47.975Z,33.90
2018-07-22T08:17:16.292Z,34.30
2018-07-22T08:19:44.748Z,34.40
2018-07-22T08:22:13.027Z,34.30
2018-07-22T08:24:41.299Z,33.60
2018-07-22T08:27:10.166Z,33.20
2018-07-22T08:29:38.393Z,33.00
2018-07-22T08:32:07.229Z,32.90
2018-07-22T08:34:35.499Z,33.00
2018-07-22T08:37:04.309Z,33.30
2018-07-22T08:39:33.272Z,33.70
2018-07-22T08:42:01.943Z,33.80
2018-07-22T08:44:30.189Z,33.60
2018-07-22T08:46:58.502Z,33.50
2018-07-22T08:49:26.766Z,33.40
2018-07-22T08:51:54.991Z,33.30
2018-07-22T08:54:23.301Z,33.20
2018-07-22T08:56:51.591Z,32.80
2018-07-22T08:59:19.916Z,32.80
2018-07-22T09:01:48.208Z,33.10
2018-07-22T09:04:16.500Z,33.20
2018-07-22T09:06:44.738Z,33.50
2018-07-22T09:09:13.099Z,34.00
2018-07-22T09:11:41.386Z,34.20
2018-07-22T09:14:10.267Z,34.30
2018-07-22T09:16:38.525Z,34.50
2018-07-22T09:19:06.773Z,34.30
2018-07-22T09:21:34.988Z,34.20
2018-07-22T09:24:03.250Z,34.60
2018-07-22T09:26:31.497Z,34.90
2018-07-22T09:28:59.745Z,34.80
2018-07-22T09:31:28.001Z,35.10
2018-07-22T09:33:56.277Z,35.20
2018-07-22T09:36:24.563Z,35.30
2018-07-22T09:38:52.854Z,35.50
2018-07-22T09:41:21.130Z,35.00
2018-07-22T09:43:49.421Z,35.10
2018-07-22T09:46:17.851Z,35.10
2018-07-22T09:48:46.091Z,35.00
2018-07-22T09:51:14.401Z,34.70
2018-07-22T09:53:42.699Z,34.60
2018-07-22T09:56:10.899Z,34.70
2018-07-22T09:58:39.187Z,34.60
2018-07-22T10:01:07.452Z,34.40
2018-07-22T10:03:35.785Z,33.80
2018-07-22T10:06:04.089Z,33.80
2018-07-22T10:08:32.351Z,34.10
2018-07-22T10:11:00.630Z,34.50
2018-07-22T10:13:28.911Z,34.30
2018-07-22T10:15:57.256Z,34.70
2018-07-22T10:18:25.829Z,34.60
2018-07-22T10:20:54.061Z,34.30
2018-07-22T10:23:23.508Z,34.70
2018-07-22T10:25:51.896Z,34.30
2018-07-22T10:28:20.137Z,34.10
2018-07-22T10:30:48.696Z,33.90
2018-07-22T10:33:16.992Z,33.90
2018-07-22T10:35:45.309Z,34.00
2018-07-22T10:38:13.521Z,34.00
2018-07-22T10:40:41.833Z,33.90
2018-07-22T10:43:10.297Z,33.60
2018-07-22T10:45:38.662Z,33.20
2018-07-22T10:48:06.930Z,33.30
2018-07-22T10:50:35.188Z,33.70
2018-07-22T10:53:03.460Z,33.90
2018-07-22T10:55:31.677Z,33.80
2018-07-22T10:57:59.912Z,33.50
2018-07-22T11:00:28.177Z,33.20
2018-07-22T11:02:56.457Z,32.80
2018-07-22T11:05:24.748Z,32.70
2018-07-22T11:07:53.023Z,32.30
2018-07-22T11:10:21.304Z,32.10
2018-07-22T11:12:49.601Z,31.90
2018-07-22T11:15:17.915Z,31.80
2018-07-22T11:17:46.269Z,31.50
2018-07-22T11:20:14.608Z,31.60
2018-07-22T11:22:42.860Z,31.80
2018-07-22T11:25:11.095Z,31.60
2018-07-22T11:27:39.338Z,31.80
2018-07-22T11:30:07.606Z,31.90
2018-07-22T11:32:35.833Z,31.60
2018-07-22T11:37:32.311Z,31.00
2018-07-22T11:40:00.570Z,31.20
2018-07-22T11:42:28.809Z,31.30
2018-07-22T11:44:57.113Z,31.40
2018-07-22T11:47:25.417Z,31.00
2018-07-22T11:49:53.715Z,30.90
2018-07-22T11:52:21.955Z,31.10
2018-07-22T11:54:50.229Z,30.90
2018-07-22T11:57:18.466Z,30.70
2018-07-22T11:59:46.748Z,30.60
2018-07-22T12:02:15.032Z,30.50
2018-07-22T12:04:43.343Z,30.30
2018-07-22T12:07:11.613Z,30.40
2018-07-22T12:09:39.846Z,30.40
2018-07-22T12:12:08.148Z,30.30
2018-07-22T12:14:36.368Z,30.30
2018-07-22T12:17:05.615Z,30.30
2018-07-22T12:19:33.926Z,30.60
2018-07-22T12:22:02.173Z,30.80
2018-07-22T12:24:30.426Z,30.50
2018-07-22T12:26:58.709Z,30.30
2018-07-22T12:29:26.997Z,30.20
2018-07-22T12:31:55.609Z,30.00
2018-07-22T12:34:23.842Z,29.80
2018-07-22T12:36:52.077Z,29.50
2018-07-22T12:39:20.442Z,29.40
2018-07-22T12:41:48.677Z,29.60
2018-07-22T12:44:16.986Z,29.60
2018-07-22T12:46:45.222Z,29.50
2018-07-22T12:49:13.485Z,29.80
2018-07-22T12:51:41.750Z,29.80
2018-07-22T12:54:10.007Z,29.90
2018-07-22T12:56:38.371Z,29.90
2018-07-22T12:59:06.630Z,29.90
2018-07-22T13:01:34.846Z,30.00
2018-07-22T13:04:03.415Z,30.00
2018-07-22T13:06:31.672Z,29.90
2018-07-22T13:08:59.894Z,29.90
2018-07-22T13:11:28.194Z,29.70
2018-07-22T13:13:56.453Z,29.50
2018-07-22T13:16:24.683Z,29.50
2018-07-22T13:18:52.978Z,29.50
2018-07-22T13:21:21.165Z,29.30
2018-07-22T13:23:49.402Z,29.00
2018-07-22T13:26:17.636Z,28.20
2018-07-22T13:28:45.934Z,28.10
2018-07-22T13:31:14.163Z,28.40
2018-07-22T13:33:42.379Z,28.50
2018-07-22T13:36:10.630Z,28.60
2018-07-22T13:38:38.869Z,28.30
2018-07-22T13:41:07.147Z,28.10
2018-07-22T13:43:35.410Z,28.20
2018-07-22T13:46:03.647Z,28.30
2018-07-22T13:48:31.889Z,28.20
2018-07-22T13:51:00.163Z,27.90
2018-07-22T13:53:28.446Z,27.50
2018-07-22T13:55:56.712Z,27.10
2018-07-22T13:58:25.028Z,27.20
2018-07-22T14:00:53.263Z,27.70
2018-07-22T14:03:21.559Z,27.60
2018-07-22T14:05:49.816Z,27.40
2018-07-22T14:08:18.117Z,27.00
2018-07-22T14:10:46.389Z,27.30
2018-07-22T14:13:14.644Z,27.50
2018-07-22T14:15:42.976Z,27.00
2018-07-22T14:18:11.170Z,26.90
2018-07-22T14:20:39.433Z,26.80
2018-07-22T14:23:14.112Z,26.60
2018-07-22T14:25:42.373Z,26.60
2018-07-22T14:28:10.780Z,27.10
2018-07-22T14:30:39.017Z,27.60
2018-07-22T14:33:07.393Z,27.50
2018-07-22T14:35:35.626Z,27.40
2018-07-22T14:38:04.088Z,27.60
2018-07-22T14:40:32.370Z,27.60
2018-07-22T14:43:00.625Z,27.60
2018-07-22T14:45:28.889Z,27.80
2018-07-22T14:47:57.147Z,27.70
2018-07-22T14:50:25.371Z,27.80
2018-07-22T14:52:53.654Z,27.70
2018-07-22T14:55:21.948Z,26.70
2018-07-22T14:57:50.203Z,26.60
2018-07-22T15:00:24.915Z,26.80
2018-07-22T15:02:53.140Z,27.30
2018-07-22T15:05:21.450Z,27.60
2018-07-22T15:07:49.686Z,27.70
2018-07-22T15:10:17.953Z,27.80
2018-07-22T15:12:46.192Z,27.90
2018-07-22T15:15:14.541Z,27.90
2018-07-22T15:17:43.028Z,27.70
2018-07-22T15:20:11.261Z,27.60
2018-07-22T15:22:39.569Z,27.50
2018-07-22T15:25:07.826Z,27.40
2018-07-22T15:27:36.309Z,27.30
2018-07-22T15:30:05.160Z,27.40
2018-07-22T15:32:33.457Z,27.00
2018-07-22T15:35:01.693Z,26.90
2018-07-22T15:37:29.977Z,26.90
2018-07-22T15:39:58.240Z,26.70
2018-07-22T15:42:26.469Z,26.80
2018-07-22T15:44:54.736Z,27.00
2018-07-22T15:47:22.999Z,27.10
2018-07-22T15:49:51.215Z,27.30
2018-07-22T15:52:19.485Z,27.10
2018-07-22T15:54:47.808Z,27.20
2018-07-22T15:57:16.092Z,27.40
2018-07-22T15:59:44.385Z,27.40
2018-07-22T16:02:12.614Z,27.70
2018-07-22T16:04:40.950Z,27.70
2018-07-22T16:07:09.220Z,27.60
2018-07-22T16:09:37.460Z,27.00
2018-07-22T16:12:05.964Z,27.20
2018-07-22T16:14:34.208Z,27.10
2018-07-22T16:17:02.653Z,27.10
2018-07-22T16:19:30.972Z,27.10
2018-07-22T16:21:59.240Z,26.60
2018-07-22T16:24:27.509Z,26.60
2018-07-22T16:26:55.757Z,26.60
2018-07-22T16:29:24.359Z,26.60
2018-07-22T16:31:52.670Z,26.70
2018-07-22T16:34:20.895Z,26.90
2018-07-22T16:36:49.153Z,26.90
2018-07-22T16:39:17.635Z,26.80
2018-07-22T16:41:45.900Z,27.00
2018-07-22T16:44:14.397Z,27.20
2018-07-22T16:46:42.617Z,27.20
2018-07-22T16:49:10.849Z,27.10
2018-07-22T16:51:39.358Z,26.40
2018-07-22T16:54:07.632Z,26.10
2018-07-22T16:56:37.391Z,25.80
2018-07-22T16:59:05.640Z,25.80
2018-07-22T17:01:33.880Z,26.00
2018-07-22T17:04:02.189Z,26.10
2018-07-22T17:06:30.453Z,26.30
2018-07-22T17:09:06.703Z,26.60
2018-07-22T17:11:34.970Z,26.60
2018-07-22T17:14:03.223Z,26.90
2018-07-22T17:16:31.543Z,27.00
2018-07-22T17:18:59.826Z,27.00
2018-07-22T17:21:28.054Z,26.50
2018-07-22T17:23:56.536Z,26.60
2018-07-22T17:26:24.857Z,26.70
2018-07-22T17:28:53.096Z,26.70
2018-07-22T17:31:21.373Z,26.70
2018-07-22T17:33:49.616Z,26.70
2018-07-22T17:36:18.145Z,26.90
2018-07-22T17:38:46.383Z,27.10
2018-07-22T17:41:14.665Z,27.10
2018-07-22T17:43:42.940Z,27.20
2018-07-22T17:46:11.153Z,27.10
2018-07-22T17:48:39.495Z,26.00
2018-07-22T17:51:07.735Z,25.80
2018-07-22T17:53:36.072Z,25.80
2018-07-22T17:56:04.337Z,25.50
2018-07-22T17:58:32.617Z,25.40
2018-07-22T18:01:00.859Z,25.50
2018-07-22T18:03:30.280Z,25.80
2018-07-22T18:05:58.565Z,26.00
2018-07-22T18:08:26.853Z,26.20
2018-07-22T18:10:55.727Z,26.00
2018-07-22T18:13:23.967Z,25.70
2018-07-22T18:18:20.942Z,25.70
2018-07-22T18:20:49.824Z,25.30
2018-07-22T18:23:18.642Z,25.20
2018-07-22T18:25:47.229Z,25.30
2018-07-22T18:28:16.133Z,24.80
2018-07-22T18:30:45.017Z,24.90
2018-07-22T18:33:13.290Z,24.80
2018-07-22T18:35:41.528Z,24.60
2018-07-22T18:38:09.851Z,24.00
2018-07-22T18:40:38.141Z,23.70
2018-07-22T18:43:06.365Z,23.70
2018-07-22T18:45:35.619Z,23.90
2018-07-22T18:48:04.837Z,23.80
2018-07-22T18:50:33.145Z,23.60
2018-07-22T18:53:01.387Z,23.20
2018-07-22T18:55:29.663Z,23.20
2018-07-22T18:57:57.904Z,23.20
2018-07-22T19:00:26.173Z,23.10
2018-07-22T19:02:54.448Z,23.10
2018-07-22T19:05:22.769Z,22.90
2018-07-22T19:07:50.989Z,22.90
2018-07-22T19:10:19.302Z,22.80
2018-07-22T19:12:47.608Z,22.90
2018-07-22T19:15:15.911Z,22.80
2018-07-22T19:17:44.301Z,22.90
2018-07-22T19:20:12.570Z,22.90
2018-07-22T19:22:40.795Z,22.80
2018-07-22T19:25:09.097Z,22.70
2018-07-22T19:27:37.366Z,22.70
2018-07-22T19:30:06.093Z,22.70
2018-07-22T19:32:34.369Z,22.80
2018-07-22T19:35:02.625Z,22.70
2018-07-22T19:37:30.944Z,22.70
2018-07-22T19:39:59.244Z,22.70
2018-07-22T19:42:27.462Z,22.80
2018-07-22T19:44:55.685Z,22.70
2018-07-22T19:47:23.989Z,22.40
2018-07-22T19:49:52.226Z,22.30
2018-07-22T19:52:20.554Z,22.60
2018-07-22T19:54:48.838Z,22.50
2018-07-22T19:57:18.068Z,22.50
2018-07-22T19:59:46.316Z,22.40
2018-07-22T20:02:14.612Z,22.50
2018-07-22T20:04:42.857Z,22.40
2018-07-22T20:07:11.095Z,22.20
2018-07-22T20:09:39.355Z,22.30
2018-07-22T20:12:07.874Z,22.30
2018-07-22T20:14:36.120Z,22.20
2018-07-22T20:17:04.446Z,22.40
2018-07-22T20:19:32.929Z,22.40
2018-07-22T20:22:01.215Z,22.30
2018-07-22T20:24:29.476Z,22.20
2018-07-22T20:26:58.033Z,22.30
2018-07-22T20:29:26.304Z,22.30
2018-07-22T20:31:54.565Z,22.20
2018-07-22T20:34:22.816Z,22.20
2018-07-22T20:36:51.078Z,22.00
2018-07-22T20:39:19.369Z,22.10
2018-07-22T20:41:47.658Z,21.90
2018-07-22T20:44:15.932Z,21.90
2018-07-22T20:46:44.217Z,22.00
2018-07-22T20:49:12.477Z,22.10
2018-07-22T20:51:40.698Z,22.20
2018-07-22T20:54:08.936Z,22.20
2018-07-22T20:56:37.175Z,22.30
2018-07-22T20:59:05.524Z,22.30
2018-07-22T21:01:33.769Z,22.30
2018-07-22T21:04:02.097Z,22.40
2018-07-22T21:06:30.418Z,22.30
2018-07-22T21:08:58.675Z,22.20
2018-07-22T21:11:35.893Z,22.00
2018-07-22T21:14:04.698Z,22.00
2018-07-22T21:16:32.949Z,22.00
2018-07-22T21:19:03.082Z,21.80
2018-07-22T21:21:31.334Z,21.70
2018-07-22T21:23:59.570Z,21.80
2018-07-22T21:26:27.840Z,21.70
2018-07-22T21:28:56.110Z,21.50
2018-07-22T21:31:24.434Z,21.50
2018-07-22T21:33:52.690Z,21.50
2018-07-22T21:36:20.918Z,21.40
2018-07-22T21:38:49.241Z,21.60
2018-07-22T21:41:17.476Z,21.50
2018-07-22T21:43:45.709Z,21.60
2018-07-22T21:46:13.992Z,21.80
2018-07-22T21:48:42.236Z,22.00
2018-07-22T21:51:10.520Z,22.10
2018-07-22T21:53:38.800Z,22.10
2018-07-22T21:56:07.045Z,21.80
2018-07-22T21:58:35.329Z,21.70
2018-07-22T22:01:03.617Z,21.60
2018-07-22T22:03:31.894Z,21.60
2018-07-22T22:06:00.174Z,21.60
2018-07-22T22:08:28.425Z,21.60
2018-07-22T22:10:56.670Z,21.70
2018-07-22T22:13:24.917Z,21.70
2018-07-22T22:15:53.359Z,21.60
2018-07-22T22:18:21.585Z,21.40
2018-07-22T22:20:49.833Z,21.20
2018-07-22T22:23:18.093Z,21.10
2018-07-22T22:25:46.329Z,21.10
2018-07-22T22:28:14.569Z,21.10
2018-07-22T22:30:42.860Z,21.20
2018-07-22T22:33:11.110Z,21.20
2018-07-22T22:35:39.361Z,21.30
2018-07-22T22:38:07.682Z,21.20
2018-07-22T22:40:35.932Z,21.20
2018-07-22T22:43:04.209Z,21.10
2018-07-22T22:45:32.445Z,21.20
2018-07-22T22:48:00.716Z,21.30
2018-07-22T22:50:28.946Z,21.20
2018-07-22T22:52:57.196Z,21.20
2018-07-22T22:55:25.420Z,21.10
2018-07-22T22:58:05.061Z,21.20
2018-07-22T23:00:33.325Z,21.40
2018-07-22T23:03:01.570Z,21.60
2018-07-22T23:05:29.830Z,21.80
2018-07-22T23:07:58.316Z,21.90
2018-07-22T23:10:26.575Z,21.70
2018-07-22T23:12:54.798Z,21.40
2018-07-22T23:15:23.013Z,21.40
2018-07-22T23:17:51.253Z,21.50
2018-07-22T23:20:19.506Z,21.60
2018-07-22T23:22:47.746Z,21.30
2018-07-22T23:25:15.970Z,21.10
2018-07-22T23:27:44.237Z,21.00
2018-07-22T23:30:12.486Z,21.00
2018-07-22T23:32:40.721Z,21.20
2018-07-22T23:35:09.830Z,21.30
2018-07-22T23:37:38.041Z,21.20
2018-07-22T23:40:06.268Z,21.20
2018-07-22T23:42:34.518Z,21.30
2018-07-22T23:45:02.768Z,21.40
2018-07-22T23:47:31.052Z,21.50
2018-07-22T23:49:59.289Z,21.70
2018-07-22T23:52:27.559Z,21.80
2018-07-22T23:54:55.800Z,21.90
2018-07-22T23:57:24.070Z,22.00
2018-07-22T23:59:52.304Z,22.00
